Etusivu
METAR-TAF:

METAR-TAF

Lentoasemat :

Cluj-Napoca, Romania

Leveyspiiri: 46-47N, Pituuspiiri: 023-34E, korkeus merenpinnasta: 315 m

Tämänhetkinen sää

Tämä raportti tehtiin 14 minuuttia sitten, kello 18.00 UTC
Tuuli 2 kn eri suunnista
Lämpötila 12°C
Kosteus 82%
Ilmanpaine 1016 hPa
Näkyvyys 10 km tai enemmän
Hajonneita pilviä 4000 ft:n korkeudessa, Cumulonimbus.
heikkoja vesikuuroja

METAR: LRCL 291800Z VRB02KT 9999 -SHRA BKN040CB 12/09 Q1016 R07/29//95

Aika: 21:14 (18:14 UTC)

Sääennuste

Tämä raportti tehtiin 1 tunti ja 14 minuuttia sitten, kello 17.00 UTC
Ennuste voimassa 29. päivästä klo 18 UTC - 30. päivään klo 03 UTC
Tuuli 4 kn eri suunnista
Näkyvyys 10 km tai enemmän
Hajanaisia pilviä 3000 ft:n korkeudessa
Hajanaisia pilviä 4000 ft:n korkeudessa, Cumulonimbus.
Tulossa
29. päivästä klo 19 UTC - 29. päivään klo 21 UTC
Hajanaisia pilviä 3500 ft:n korkeudessa

TAF: LRCL 291700Z 2918/3003 VRB04KT 9999 SCT030 SCT040CB BECMG 2919/2921 SCT035

Säähavainnot ja -ennusteet yli 4000 lentoasemalta (METAR- ja TAF-raportit).

Käytössä olevat sääasemat on merkitty karttaan keltaisilla ja punaisilla pisteillä.

Aseta hiiri pisteen päälle nähdäksesi sääaseman nimen.

Klikkaa sitten nähdäksesi säähavainnot ja -ennusteet.

Kartan vaihtaminen: klikkaa mustalla rastilla varustettuja vihreitä pisteitä, niin voit zoomata sisään; viivalla varustettua vihreää pistettä, niin voit zoomata ulos tai vihreitä nuolia, niin pääset viereisille kartoille.


METAR-TAF: